Akureyri Airport

BIAR | AEY

Akureyri , Northeast , Iceland

Sunday, January 26th, 2020 | 23:22

Weather

BIAR 262300Z 17008KT CAVOK M06/M07 Q0968 R01/490195 RMK WIND VADLAHEIDI 20417KT

Charts

1 Available

Gates

6 Available

Runways

1 Available

Events

No events for this airport


New event